sensor_id;sensor_type;location;lat;lon;timestamp;P1;durP1;ratioP1;P2;durP2;ratioP2
56285;SDS011;42191;47.562;9.686;2023-08-12T00:00:36;33.45;;;31.35;;
56285;SDS011;42191;47.562;9.686;2023-08-12T00:03:02;32.17;;;29.88;;
56285;SDS011;42191;47.562;9.686;2023-08-12T00:05:29;33.85;;;31.65;;
56285;SDS011;42191;47.562;9.686;2023-08-12T00:07:55;30.67;;;28.70;;
56285;SDS011;42191;47.562;9.686;2023-08-12T00:10:21;31.35;;;29.33;;
56285;SDS011;42191;47.562;9.686;2023-08-12T00:12:47;32.28;;;30.17;;
56285;SDS011;42191;47.562;9.686;2023-08-12T00:15:14;31.65;;;29.73;;
56285;SDS011;42191;47.562;9.686;2023-08-12T00:17:40;32.78;;;30.48;;
56285;SDS011;42191;47.562;9.686;2023-08-12T00:20:06;32.75;;;30.65;;
56285;SDS011;42191;47.562;9.686;2023-08-12T00:22:35;32.85;;;30.75;;
56285;SDS011;42191;47.562;9.686;2023-08-12T00:25:02;31.40;;;29.50;;
56285;SDS011;42191;47.562;9.686;2023-08-12T00:27:28;34.15;;;31.95;;
56285;SDS011;42191;47.562;9.686;2023-08-12T00:29:55;33.00;;;30.90;;
56285;SDS011;42191;47.562;9.686;2023-08-12T00:32:21;32.20;;;30.08;;
56285;SDS011;42191;47.562;9.686;2023-08-12T00:34:47;31.63;;;29.50;;
56285;SDS011;42191;47.562;9.686;2023-08-12T00:37:13;32.97;;;30.65;;
56285;SDS011;42191;47.562;9.686;2023-08-12T00:39:39;33.20;;;31.08;;
56285;SDS011;42191;47.562;9.686;2023-08-12T00:42:05;33.30;;;30.90;;
56285;SDS011;42191;47.562;9.686;2023-08-12T00:44:31;31.38;;;29.17;;
56285;SDS011;42191;47.562;9.686;2023-08-12T00:46:58;31.67;;;29.45;;
56285;SDS011;42191;47.562;9.686;2023-08-12T00:49:24;33.60;;;31.40;;
56285;SDS011;42191;47.562;9.686;2023-08-12T00:51:51;31.60;;;29.63;;
56285;SDS011;42191;47.562;9.686;2023-08-12T00:54:19;32.95;;;30.85;;
56285;SDS011;42191;47.562;9.686;2023-08-12T00:56:48;33.08;;;30.98;;
56285;SDS011;42191;47.562;9.686;2023-08-12T00:59:15;33.58;;;31.08;;
56285;SDS011;42191;47.562;9.686;2023-08-12T01:01:42;32.45;;;30.45;;
56285;SDS011;42191;47.562;9.686;2023-08-12T01:04:09;31.75;;;29.77;;
56285;SDS011;42191;47.562;9.686;2023-08-12T01:06:36;33.65;;;31.55;;
56285;SDS011;42191;47.562;9.686;2023-08-12T01:09:02;34.70;;;32.30;;
56285;SDS011;42191;47.562;9.686;2023-08-12T01:11:46;31.70;;;29.70;;
56285;SDS011;42191;47.562;9.686;2023-08-12T01:14:22;33.72;;;31.52;;
56285;SDS011;42191;47.562;9.686;2023-08-12T01:17:08;31.92;;;29.92;;
56285;SDS011;42191;47.562;9.686;2023-08-12T01:19:39;31.75;;;29.67;;
56285;SDS011;42191;47.562;9.686;2023-08-12T01:22:08;32.67;;;30.52;;
56285;SDS011;42191;47.562;9.686;2023-08-12T01:24:36;31.95;;;29.95;;
56285;SDS011;42191;47.562;9.686;2023-08-12T01:27:02;33.88;;;31.75;;
56285;SDS011;42191;47.562;9.686;2023-08-12T01:29:29;31.85;;;29.80;;
56285;SDS011;42191;47.562;9.686;2023-08-12T01:32:07;33.55;;;31.45;;
56285;SDS011;42191;47.562;9.686;2023-08-12T01:34:44;33.67;;;31.27;;
56285;SDS011;42191;47.562;9.686;2023-08-12T01:37:17;32.00;;;30.00;;
56285;SDS011;42191;47.562;9.686;2023-08-12T01:39:49;33.15;;;31.08;;
56285;SDS011;42191;47.562;9.686;2023-08-12T01:42:18;33.20;;;31.08;;
56285;SDS011;42191;47.562;9.686;2023-08-12T01:44:45;34.20;;;31.83;;
56285;SDS011;42191;47.562;9.686;2023-08-12T01:47:11;33.58;;;31.48;;
56285;SDS011;42191;47.562;9.686;2023-08-12T01:49:38;32.90;;;30.80;;
56285;SDS011;42191;47.562;9.686;2023-08-12T01:52:04;33.10;;;31.00;;
56285;SDS011;42191;47.562;9.686;2023-08-12T01:54:30;31.45;;;29.45;;
56285;SDS011;42191;47.562;9.686;2023-08-12T01:57:04;33.28;;;31.17;;
56285;SDS011;42191;47.562;9.686;2023-08-12T01:59:32;32.88;;;30.67;;
56285;SDS011;42191;47.562;9.686;2023-08-12T02:01:58;31.67;;;29.63;;
56285;SDS011;42191;47.562;9.686;2023-08-12T02:04:25;31.88;;;29.88;;
56285;SDS011;42191;47.562;9.686;2023-08-12T02:06:52;33.85;;;31.55;;
56285;SDS011;42191;47.562;9.686;2023-08-12T02:09:19;32.05;;;30.00;;
56285;SDS011;42191;47.562;9.686;2023-08-12T02:11:46;32.17;;;30.13;;
56285;SDS011;42191;47.562;9.686;2023-08-12T02:14:12;32.67;;;30.63;;
56285;SDS011;42191;47.562;9.686;2023-08-12T02:16:38;32.92;;;30.83;;
56285;SDS011;42191;47.562;9.686;2023-08-12T02:19:04;31.92;;;29.73;;
56285;SDS011;42191;47.562;9.686;2023-08-12T02:21:30;32.30;;;30.27;;
56285;SDS011;42191;47.562;9.686;2023-08-12T02:23:56;32.70;;;30.60;;
56285;SDS011;42191;47.562;9.686;2023-08-12T02:26:23;33.17;;;30.85;;
56285;SDS011;42191;47.562;9.686;2023-08-12T02:28:49;33.45;;;31.25;;
56285;SDS011;42191;47.562;9.686;2023-08-12T02:31:15;33.25;;;31.05;;
56285;SDS011;42191;47.562;9.686;2023-08-12T02:33:42;32.28;;;30.27;;
56285;SDS011;42191;47.562;9.686;2023-08-12T02:36:08;33.95;;;31.70;;
56285;SDS011;42191;47.562;9.686;2023-08-12T02:38:34;32.80;;;30.50;;
56285;SDS011;42191;47.562;9.686;2023-08-12T02:41:01;33.22;;;31.02;;
56285;SDS011;42191;47.562;9.686;2023-08-12T02:43:27;32.30;;;30.13;;
56285;SDS011;42191;47.562;9.686;2023-08-12T02:45:53;32.97;;;30.88;;
56285;SDS011;42191;47.562;9.686;2023-08-12T02:48:19;33.05;;;30.98;;
56285;SDS011;42191;47.562;9.686;2023-08-12T02:50:46;33.30;;;31.20;;
56285;SDS011;42191;47.562;9.686;2023-08-12T02:53:12;31.85;;;29.85;;
56285;SDS011;42191;47.562;9.686;2023-08-12T02:55:38;34.47;;;32.28;;
56285;SDS011;42191;47.562;9.686;2023-08-12T02:58:04;32.92;;;30.90;;
56285;SDS011;42191;47.562;9.686;2023-08-12T03:00:30;33.03;;;30.85;;
56285;SDS011;42191;47.562;9.686;2023-08-12T03:02:56;34.28;;;32.00;;
56285;SDS011;42191;47.562;9.686;2023-08-12T03:05:23;33.85;;;31.45;;
56285;SDS011;42191;47.562;9.686;2023-08-12T03:07:49;32.97;;;30.77;;
56285;SDS011;42191;47.562;9.686;2023-08-12T03:10:17;34.42;;;32.13;;
56285;SDS011;42191;47.562;9.686;2023-08-12T03:12:43;34.65;;;32.30;;
56285;SDS011;42191;47.562;9.686;2023-08-12T03:15:10;34.05;;;31.85;;
56285;SDS011;42191;47.562;9.686;2023-08-12T03:17:36;33.95;;;31.55;;
56285;SDS011;42191;47.562;9.686;2023-08-12T03:20:06;33.95;;;31.80;;
56285;SDS011;42191;47.562;9.686;2023-08-12T03:22:35;32.10;;;30.00;;
56285;SDS011;42191;47.562;9.686;2023-08-12T03:25:02;33.95;;;31.85;;
56285;SDS011;42191;47.562;9.686;2023-08-12T03:27:28;34.72;;;32.45;;
56285;SDS011;42191;47.562;9.686;2023-08-12T03:29:55;34.55;;;32.15;;
56285;SDS011;42191;47.562;9.686;2023-08-12T03:32:21;33.88;;;31.73;;
56285;SDS011;42191;47.562;9.686;2023-08-12T03:34:47;33.08;;;30.88;;
56285;SDS011;42191;47.562;9.686;2023-08-12T03:37:13;34.72;;;32.42;;
56285;SDS011;42191;47.562;9.686;2023-08-12T03:39:39;34.78;;;32.45;;
56285;SDS011;42191;47.562;9.686;2023-08-12T03:42:06;32.97;;;30.77;;
56285;SDS011;42191;47.562;9.686;2023-08-12T03:44:32;34.33;;;32.13;;
56285;SDS011;42191;47.562;9.686;2023-08-12T03:46:58;33.42;;;31.33;;
56285;SDS011;42191;47.562;9.686;2023-08-12T03:49:24;34.33;;;32.13;;
56285;SDS011;42191;47.562;9.686;2023-08-12T03:51:50;35.05;;;32.67;;
56285;SDS011;42191;47.562;9.686;2023-08-12T03:54:17;34.33;;;32.13;;
56285;SDS011;42191;47.562;9.686;2023-08-12T03:56:44;35.03;;;32.72;;
56285;SDS011;42191;47.562;9.686;2023-08-12T03:59:10;35.83;;;33.53;;
56285;SDS011;42191;47.562;9.686;2023-08-12T04:01:36;35.70;;;33.13;;
56285;SDS011;42191;47.562;9.686;2023-08-12T04:04:03;35.10;;;32.83;;
56285;SDS011;42191;47.562;9.686;2023-08-12T04:06:29;34.83;;;32.45;;
56285;SDS011;42191;47.562;9.686;2023-08-12T04:08:55;34.75;;;32.45;;
56285;SDS011;42191;47.562;9.686;2023-08-12T04:11:21;32.97;;;30.88;;
56285;SDS011;42191;47.562;9.686;2023-08-12T04:13:47;34.05;;;31.80;;
56285;SDS011;42191;47.562;9.686;2023-08-12T04:16:13;33.70;;;31.50;;
56285;SDS011;42191;47.562;9.686;2023-08-12T04:18:40;34.60;;;32.40;;
56285;SDS011;42191;47.562;9.686;2023-08-12T04:21:07;34.67;;;32.47;;
56285;SDS011;42191;47.562;9.686;2023-08-12T04:23:33;33.83;;;31.42;;
56285;SDS011;42191;47.562;9.686;2023-08-12T04:26:00;34.10;;;31.92;;
56285;SDS011;42191;47.562;9.686;2023-08-12T04:28:26;34.05;;;31.85;;
56285;SDS011;42191;47.562;9.686;2023-08-12T04:30:52;33.03;;;30.92;;
56285;SDS011;42191;47.562;9.686;2023-08-12T04:33:18;33.45;;;31.35;;
56285;SDS011;42191;47.562;9.686;2023-08-12T04:35:47;33.65;;;31.35;;
56285;SDS011;42191;47.562;9.686;2023-08-12T04:38:13;33.63;;;31.42;;
56285;SDS011;42191;47.562;9.686;2023-08-12T04:40:41;33.42;;;31.33;;
56285;SDS011;42191;47.562;9.686;2023-08-12T04:43:07;34.97;;;32.78;;
56285;SDS011;42191;47.562;9.686;2023-08-12T04:45:34;34.53;;;32.33;;
56285;SDS011;42191;47.562;9.686;2023-08-12T04:48:00;34.42;;;32.08;;
56285;SDS011;42191;47.562;9.686;2023-08-12T04:50:30;33.88;;;31.67;;
56285;SDS011;42191;47.562;9.686;2023-08-12T04:52:59;33.75;;;31.55;;
56285;SDS011;42191;47.562;9.686;2023-08-12T04:55:25;32.40;;;30.13;;
56285;SDS011;42191;47.562;9.686;2023-08-12T04:57:52;33.72;;;31.33;;
56285;SDS011;42191;47.562;9.686;2023-08-12T05:00:19;34.05;;;31.75;;
56285;SDS011;42191;47.562;9.686;2023-08-12T05:02:45;33.53;;;31.15;;
56285;SDS011;42191;47.562;9.686;2023-08-12T05:05:11;34.08;;;31.88;;
56285;SDS011;42191;47.562;9.686;2023-08-12T05:07:38;33.28;;;31.17;;
56285;SDS011;42191;47.562;9.686;2023-08-12T05:10:04;35.05;;;32.83;;
56285;SDS011;42191;47.562;9.686;2023-08-12T05:12:30;33.60;;;31.50;;
56285;SDS011;42191;47.562;9.686;2023-08-12T05:14:56;33.47;;;31.38;;
56285;SDS011;42191;47.562;9.686;2023-08-12T05:17:23;33.20;;;31.10;;
56285;SDS011;42191;47.562;9.686;2023-08-12T05:19:49;33.80;;;31.50;;
56285;SDS011;42191;47.562;9.686;2023-08-12T05:22:15;33.33;;;31.23;;
56285;SDS011;42191;47.562;9.686;2023-08-12T05:24:42;32.53;;;30.23;;
56285;SDS011;42191;47.562;9.686;2023-08-12T05:27:08;33.08;;;30.98;;
56285;SDS011;42191;47.562;9.686;2023-08-12T05:29:34;34.33;;;31.95;;
56285;SDS011;42191;47.562;9.686;2023-08-12T05:32:00;32.80;;;30.70;;
56285;SDS011;42191;47.562;9.686;2023-08-12T05:34:26;32.90;;;30.80;;
56285;SDS011;42191;47.562;9.686;2023-08-12T05:36:52;32.35;;;30.35;;
56285;SDS011;42191;47.562;9.686;2023-08-12T05:39:18;33.38;;;31.27;;
56285;SDS011;42191;47.562;9.686;2023-08-12T05:41:45;32.92;;;30.73;;
56285;SDS011;42191;47.562;9.686;2023-08-12T05:44:11;33.05;;;30.67;;
56285;SDS011;42191;47.562;9.686;2023-08-12T05:46:37;33.28;;;31.10;;
56285;SDS011;42191;47.562;9.686;2023-08-12T05:49:03;33.22;;;31.10;;
56285;SDS011;42191;47.562;9.686;2023-08-12T05:51:29;32.33;;;30.17;;
56285;SDS011;42191;47.562;9.686;2023-08-12T05:53:56;33.30;;;31.20;;
56285;SDS011;42191;47.562;9.686;2023-08-12T05:56:22;33.42;;;31.33;;
56285;SDS011;42191;47.562;9.686;2023-08-12T05:58:48;32.90;;;30.73;;
56285;SDS011;42191;47.562;9.686;2023-08-12T06:01:14;32.40;;;30.30;;
56285;SDS011;42191;47.562;9.686;2023-08-12T06:03:40;31.77;;;29.67;;
56285;SDS011;42191;47.562;9.686;2023-08-12T06:06:06;30.52;;;28.52;;
56285;SDS011;42191;47.562;9.686;2023-08-12T06:08:33;32.08;;;29.77;;
56285;SDS011;42191;47.562;9.686;2023-08-12T06:10:59;31.83;;;29.73;;
56285;SDS011;42191;47.562;9.686;2023-08-12T06:13:25;32.70;;;30.52;;
56285;SDS011;42191;47.562;9.686;2023-08-12T06:15:51;31.88;;;29.73;;
56285;SDS011;42191;47.562;9.686;2023-08-12T06:18:17;32.42;;;30.08;;
56285;SDS011;42191;47.562;9.686;2023-08-12T06:20:43;32.70;;;30.58;;
56285;SDS011;42191;47.562;9.686;2023-08-12T06:23:09;31.63;;;29.48;;
56285;SDS011;42191;47.562;9.686;2023-08-12T06:25:36;33.22;;;30.73;;
56285;SDS011;42191;47.562;9.686;2023-08-12T06:28:02;31.77;;;29.83;;
56285;SDS011;42191;47.562;9.686;2023-08-12T06:30:29;31.65;;;29.55;;
56285;SDS011;42191;47.562;9.686;2023-08-12T06:32:55;31.45;;;29.45;;
56285;SDS011;42191;47.562;9.686;2023-08-12T06:35:22;30.08;;;28.17;;
56285;SDS011;42191;47.562;9.686;2023-08-12T06:37:48;30.85;;;28.83;;
56285;SDS011;42191;47.562;9.686;2023-08-12T06:40:14;31.05;;;29.05;;
56285;SDS011;42191;47.562;9.686;2023-08-12T06:42:40;30.58;;;28.67;;
56285;SDS011;42191;47.562;9.686;2023-08-12T06:45:06;30.83;;;28.83;;
56285;SDS011;42191;47.562;9.686;2023-08-12T06:47:33;30.65;;;28.75;;
56285;SDS011;42191;47.562;9.686;2023-08-12T06:49:59;30.92;;;28.67;;
56285;SDS011;42191;47.562;9.686;2023-08-12T06:52:25;31.02;;;29.02;;
56285;SDS011;42191;47.562;9.686;2023-08-12T06:54:51;29.90;;;27.90;;
56285;SDS011;42191;47.562;9.686;2023-08-12T06:57:18;29.88;;;27.98;;
56285;SDS011;42191;47.562;9.686;2023-08-12T06:59:44;31.35;;;29.27;;
56285;SDS011;42191;47.562;9.686;2023-08-12T07:02:10;30.92;;;28.80;;
56285;SDS011;42191;47.562;9.686;2023-08-12T07:04:36;31.42;;;29.42;;
56285;SDS011;42191;47.562;9.686;2023-08-12T07:07:03;32.25;;;29.90;;
56285;SDS011;42191;47.562;9.686;2023-08-12T07:09:29;30.33;;;28.40;;
56285;SDS011;42191;47.562;9.686;2023-08-12T07:11:55;30.70;;;28.70;;
56285;SDS011;42191;47.562;9.686;2023-08-12T07:14:21;31.27;;;29.17;;
56285;SDS011;42191;47.562;9.686;2023-08-12T07:16:47;30.15;;;28.33;;
56285;SDS011;42191;47.562;9.686;2023-08-12T07:19:13;30.02;;;28.02;;
56285;SDS011;42191;47.562;9.686;2023-08-12T07:21:40;30.95;;;28.95;;
56285;SDS011;42191;47.562;9.686;2023-08-12T07:24:06;31.40;;;29.30;;
56285;SDS011;42191;47.562;9.686;2023-08-12T07:26:32;30.77;;;28.77;;
56285;SDS011;42191;47.562;9.686;2023-08-12T07:28:58;31.48;;;29.27;;
56285;SDS011;42191;47.562;9.686;2023-08-12T07:31:24;30.92;;;28.73;;
56285;SDS011;42191;47.562;9.686;2023-08-12T07:33:50;30.95;;;28.85;;
56285;SDS011;42191;47.562;9.686;2023-08-12T07:36:17;31.00;;;29.00;;
56285;SDS011;42191;47.562;9.686;2023-08-12T07:38:43;31.13;;;29.02;;
56285;SDS011;42191;47.562;9.686;2023-08-12T07:41:09;32.00;;;29.67;;
56285;SDS011;42191;47.562;9.686;2023-08-12T07:43:35;31.13;;;29.00;;
56285;SDS011;42191;47.562;9.686;2023-08-12T07:46:01;32.17;;;29.88;;
56285;SDS011;42191;47.562;9.686;2023-08-12T07:48:27;30.48;;;28.48;;
56285;SDS011;42191;47.562;9.686;2023-08-12T07:50:57;32.00;;;29.92;;
56285;SDS011;42191;47.562;9.686;2023-08-12T07:53:23;30.85;;;28.70;;
56285;SDS011;42191;47.562;9.686;2023-08-12T07:55:50;32.28;;;30.08;;
56285;SDS011;42191;47.562;9.686;2023-08-12T07:58:16;31.33;;;29.23;;
56285;SDS011;42191;47.562;9.686;2023-08-12T08:00:43;31.35;;;29.25;;
56285;SDS011;42191;47.562;9.686;2023-08-12T08:03:09;31.67;;;29.58;;
56285;SDS011;42191;47.562;9.686;2023-08-12T08:05:35;31.33;;;29.08;;
56285;SDS011;42191;47.562;9.686;2023-08-12T08:08:04;32.13;;;30.02;;
56285;SDS011;42191;47.562;9.686;2023-08-12T08:10:31;31.52;;;29.33;;
56285;SDS011;42191;47.562;9.686;2023-08-12T08:12:57;30.88;;;28.88;;
56285;SDS011;42191;47.562;9.686;2023-08-12T08:15:23;32.35;;;30.27;;
56285;SDS011;42191;47.562;9.686;2023-08-12T08:17:49;31.77;;;29.77;;
56285;SDS011;42191;47.562;9.686;2023-08-12T08:20:15;32.72;;;30.35;;
56285;SDS011;42191;47.562;9.686;2023-08-12T08:22:41;31.67;;;29.65;;
56285;SDS011;42191;47.562;9.686;2023-08-12T08:25:07;32.03;;;29.73;;
56285;SDS011;42191;47.562;9.686;2023-08-12T08:27:33;33.30;;;31.10;;
56285;SDS011;42191;47.562;9.686;2023-08-12T08:30:00;31.80;;;29.80;;
56285;SDS011;42191;47.562;9.686;2023-08-12T08:32:26;31.92;;;29.83;;
56285;SDS011;42191;47.562;9.686;2023-08-12T08:34:52;32.60;;;30.50;;
56285;SDS011;42191;47.562;9.686;2023-08-12T08:37:18;32.92;;;30.83;;
56285;SDS011;42191;47.562;9.686;2023-08-12T08:39:44;31.95;;;29.95;;
56285;SDS011;42191;47.562;9.686;2023-08-12T08:42:10;31.63;;;29.52;;
56285;SDS011;42191;47.562;9.686;2023-08-12T08:44:37;30.95;;;28.85;;
56285;SDS011;42191;47.562;9.686;2023-08-12T08:47:07;32.08;;;29.92;;
56285;SDS011;42191;47.562;9.686;2023-08-12T08:49:34;31.23;;;28.80;;
56285;SDS011;42191;47.562;9.686;2023-08-12T08:52:02;32.70;;;30.50;;
56285;SDS011;42191;47.562;9.686;2023-08-12T08:54:28;31.90;;;29.52;;
56285;SDS011;42191;47.562;9.686;2023-08-12T08:56:55;33.75;;;31.00;;
56285;SDS011;42191;47.562;9.686;2023-08-12T08:59:21;32.50;;;30.27;;
56285;SDS011;42191;47.562;9.686;2023-08-12T09:01:48;32.58;;;30.27;;
56285;SDS011;42191;47.562;9.686;2023-08-12T09:04:18;32.92;;;30.58;;
56285;SDS011;42191;47.562;9.686;2023-08-12T09:06:47;32.05;;;29.95;;
56285;SDS011;42191;47.562;9.686;2023-08-12T09:09:15;32.78;;;30.58;;
56285;SDS011;42191;47.562;9.686;2023-08-12T09:11:43;32.55;;;30.40;;
56285;SDS011;42191;47.562;9.686;2023-08-12T09:14:10;32.38;;;30.17;;
56285;SDS011;42191;47.562;9.686;2023-08-12T09:16:37;32.00;;;29.73;;
56285;SDS011;42191;47.562;9.686;2023-08-12T09:19:03;32.53;;;30.38;;
56285;SDS011;42191;47.562;9.686;2023-08-12T09:21:29;33.05;;;30.65;;
56285;SDS011;42191;47.562;9.686;2023-08-12T09:23:56;31.73;;;29.42;;
56285;SDS011;42191;47.562;9.686;2023-08-12T09:26:27;30.45;;;28.45;;
56285;SDS011;42191;47.562;9.686;2023-08-12T09:28:54;31.35;;;29.27;;
56285;SDS011;42191;47.562;9.686;2023-08-12T09:31:24;31.58;;;29.27;;
56285;SDS011;42191;47.562;9.686;2023-08-12T09:34:03;30.10;;;28.02;;
56285;SDS011;42191;47.562;9.686;2023-08-12T09:36:33;31.63;;;29.33;;
56285;SDS011;42191;47.562;9.686;2023-08-12T09:39:00;30.60;;;28.60;;
56285;SDS011;42191;47.562;9.686;2023-08-12T09:41:30;30.23;;;28.17;;
56285;SDS011;42191;47.562;9.686;2023-08-12T09:43:57;30.75;;;28.67;;
56285;SDS011;42191;47.562;9.686;2023-08-12T09:46:23;30.88;;;28.98;;
56285;SDS011;42191;47.562;9.686;2023-08-12T09:48:50;29.80;;;27.73;;
56285;SDS011;42191;47.562;9.686;2023-08-12T09:51:17;30.92;;;28.92;;
56285;SDS011;42191;47.562;9.686;2023-08-12T09:53:47;31.20;;;29.17;;
56285;SDS011;42191;47.562;9.686;2023-08-12T09:56:19;30.45;;;28.25;;
56285;SDS011;42191;47.562;9.686;2023-08-12T09:58:49;31.05;;;28.90;;
56285;SDS011;42191;47.562;9.686;2023-08-12T10:01:20;30.88;;;28.73;;
56285;SDS011;42191;47.562;9.686;2023-08-12T10:03:50;31.52;;;29.23;;
56285;SDS011;42191;47.562;9.686;2023-08-12T10:06:16;31.60;;;29.45;;
56285;SDS011;42191;47.562;9.686;2023-08-12T10:08:43;31.90;;;29.65;;
56285;SDS011;42191;47.562;9.686;2023-08-12T10:11:12;31.85;;;29.63;;
56285;SDS011;42191;47.562;9.686;2023-08-12T10:13:43;32.38;;;30.08;;
56285;SDS011;42191;47.562;9.686;2023-08-12T10:16:09;30.25;;;28.27;;
56285;SDS011;42191;47.562;9.686;2023-08-12T10:18:38;32.13;;;30.02;;
56285;SDS011;42191;47.562;9.686;2023-08-12T10:21:08;31.30;;;29.30;;
56285;SDS011;42191;47.562;9.686;2023-08-12T10:23:38;31.05;;;28.88;;
56285;SDS011;42191;47.562;9.686;2023-08-12T10:26:06;32.33;;;30.23;;
56285;SDS011;42191;47.562;9.686;2023-08-12T10:28:33;30.80;;;28.80;;
56285;SDS011;42191;47.562;9.686;2023-08-12T10:31:02;31.88;;;29.55;;
56285;SDS011;42191;47.562;9.686;2023-08-12T10:33:34;31.33;;;29.30;;
56285;SDS011;42191;47.562;9.686;2023-08-12T10:36:04;31.13;;;29.08;;
56285;SDS011;42191;47.562;9.686;2023-08-12T10:38:31;31.35;;;29.35;;
56285;SDS011;42191;47.562;9.686;2023-08-12T10:41:15;31.45;;;29.25;;
56285;SDS011;42191;47.562;9.686;2023-08-12T10:48:57;30.77;;;28.88;;
56285;SDS011;42191;47.562;9.686;2023-08-12T10:51:44;31.95;;;29.65;;
56285;SDS011;42191;47.562;9.686;2023-08-12T10:54:27;30.45;;;28.25;;
56285;SDS011;42191;47.562;9.686;2023-08-12T11:02:32;30.73;;;28.73;;
56285;SDS011;42191;47.562;9.686;2023-08-12T11:05:03;28.73;;;26.88;;
56285;SDS011;42191;47.562;9.686;2023-08-12T11:07:34;29.17;;;27.27;;
56285;SDS011;42191;47.562;9.686;2023-08-12T11:10:13;28.13;;;26.13;;
56285;SDS011;42191;47.562;9.686;2023-08-12T11:18:05;29.20;;;27.30;;
56285;SDS011;42191;47.562;9.686;2023-08-12T11:20:33;28.75;;;26.85;;
56285;SDS011;42191;47.562;9.686;2023-08-12T11:23:00;27.73;;;25.88;;
56285;SDS011;42191;47.562;9.686;2023-08-12T11:25:28;29.05;;;27.17;;
56285;SDS011;42191;47.562;9.686;2023-08-12T11:27:55;28.80;;;26.88;;
56285;SDS011;42191;47.562;9.686;2023-08-12T11:30:22;28.88;;;26.83;;
56285;SDS011;42191;47.562;9.686;2023-08-12T11:32:49;30.27;;;28.38;;
56285;SDS011;42191;47.562;9.686;2023-08-12T11:35:20;30.27;;;28.27;;
56285;SDS011;42191;47.562;9.686;2023-08-12T11:37:49;31.50;;;29.27;;
56285;SDS011;42191;47.562;9.686;2023-08-12T11:40:24;30.88;;;28.73;;
56285;SDS011;42191;47.562;9.686;2023-08-12T11:42:52;30.05;;;27.92;;
56285;SDS011;42191;47.562;9.686;2023-08-12T11:45:20;30.30;;;28.20;;
56285;SDS011;42191;47.562;9.686;2023-08-12T11:47:48;31.08;;;28.73;;
56285;SDS011;42191;47.562;9.686;2023-08-12T11:50:18;31.02;;;28.83;;
56285;SDS011;42191;47.562;9.686;2023-08-12T11:52:45;30.65;;;28.45;;
56285;SDS011;42191;47.562;9.686;2023-08-12T11:55:12;30.10;;;27.90;;
56285;SDS011;42191;47.562;9.686;2023-08-12T11:57:39;30.73;;;28.63;;
56285;SDS011;42191;47.562;9.686;2023-08-12T12:00:06;29.52;;;27.63;;
56285;SDS011;42191;47.562;9.686;2023-08-12T12:02:38;29.38;;;27.27;;
56285;SDS011;42191;47.562;9.686;2023-08-12T12:05:10;28.98;;;27.08;;
56285;SDS011;42191;47.562;9.686;2023-08-12T12:07:37;30.13;;;28.20;;
56285;SDS011;42191;47.562;9.686;2023-08-12T12:10:06;29.50;;;27.60;;
56285;SDS011;42191;47.562;9.686;2023-08-12T12:12:33;29.58;;;27.70;;
56285;SDS011;42191;47.562;9.686;2023-08-12T12:15:02;30.30;;;28.30;;
56285;SDS011;42191;47.562;9.686;2023-08-12T12:17:29;29.58;;;27.58;;
56285;SDS011;42191;47.562;9.686;2023-08-12T12:19:56;27.33;;;25.63;;
56285;SDS011;42191;47.562;9.686;2023-08-12T12:22:28;28.58;;;26.67;;
56285;SDS011;42191;47.562;9.686;2023-08-12T12:24:57;28.27;;;26.38;;
56285;SDS011;42191;47.562;9.686;2023-08-12T12:27:25;29.33;;;27.23;;
56285;SDS011;42191;47.562;9.686;2023-08-12T12:29:52;28.85;;;26.60;;
56285;SDS011;42191;47.562;9.686;2023-08-12T12:32:19;28.02;;;26.25;;
56285;SDS011;42191;47.562;9.686;2023-08-12T12:34:46;27.77;;;26.08;;
56285;SDS011;42191;47.562;9.686;2023-08-12T12:37:13;28.30;;;26.42;;
56285;SDS011;42191;47.562;9.686;2023-08-12T12:39:39;28.10;;;26.20;;
56285;SDS011;42191;47.562;9.686;2023-08-12T12:42:05;25.67;;;24.05;;
56285;SDS011;42191;47.562;9.686;2023-08-12T12:44:32;27.80;;;25.80;;
56285;SDS011;42191;47.562;9.686;2023-08-12T12:46:58;27.67;;;25.98;;
56285;SDS011;42191;47.562;9.686;2023-08-12T12:49:24;27.15;;;25.35;;
56285;SDS011;42191;47.562;9.686;2023-08-12T12:51:50;27.77;;;25.88;;
56285;SDS011;42191;47.562;9.686;2023-08-12T12:54:16;27.60;;;25.75;;
56285;SDS011;42191;47.562;9.686;2023-08-12T12:56:43;25.63;;;23.88;;
56285;SDS011;42191;47.562;9.686;2023-08-12T12:59:09;26.38;;;24.60;;
56285;SDS011;42191;47.562;9.686;2023-08-12T13:01:35;26.75;;;25.08;;
56285;SDS011;42191;47.562;9.686;2023-08-12T13:04:01;27.63;;;25.83;;
56285;SDS011;42191;47.562;9.686;2023-08-12T13:06:28;26.15;;;24.52;;
56285;SDS011;42191;47.562;9.686;2023-08-12T13:08:54;26.63;;;24.60;;
56285;SDS011;42191;47.562;9.686;2023-08-12T13:11:20;26.80;;;25.00;;
56285;SDS011;42191;47.562;9.686;2023-08-12T13:13:46;27.40;;;25.60;;
56285;SDS011;42191;47.562;9.686;2023-08-12T13:16:12;27.27;;;25.58;;
56285;SDS011;42191;47.562;9.686;2023-08-12T13:18:38;27.90;;;25.90;;
56285;SDS011;42191;47.562;9.686;2023-08-12T13:21:04;27.50;;;25.70;;
56285;SDS011;42191;47.562;9.686;2023-08-12T13:23:30;27.30;;;25.60;;
56285;SDS011;42191;47.562;9.686;2023-08-12T13:25:56;27.00;;;25.00;;
56285;SDS011;42191;47.562;9.686;2023-08-12T13:28:22;26.63;;;24.92;;
56285;SDS011;42191;47.562;9.686;2023-08-12T13:30:48;27.38;;;25.58;;
56285;SDS011;42191;47.562;9.686;2023-08-12T13:33:15;27.77;;;25.75;;
56285;SDS011;42191;47.562;9.686;2023-08-12T13:35:42;27.45;;;25.67;;
56285;SDS011;42191;47.562;9.686;2023-08-12T13:38:08;26.77;;;25.08;;
56285;SDS011;42191;47.562;9.686;2023-08-12T13:40:34;27.42;;;25.63;;
56285;SDS011;42191;47.562;9.686;2023-08-12T13:43:00;27.75;;;25.65;;
56285;SDS011;42191;47.562;9.686;2023-08-12T13:45:26;27.27;;;25.58;;
56285;SDS011;42191;47.562;9.686;2023-08-12T13:47:52;26.65;;;25.00;;
56285;SDS011;42191;47.562;9.686;2023-08-12T13:50:18;28.13;;;26.33;;
56285;SDS011;42191;47.562;9.686;2023-08-12T13:52:45;27.92;;;26.20;;
56285;SDS011;42191;47.562;9.686;2023-08-12T13:55:12;28.20;;;26.40;;
56285;SDS011;42191;47.562;9.686;2023-08-12T13:57:38;27.08;;;25.38;;
56285;SDS011;42191;47.562;9.686;2023-08-12T14:00:04;26.52;;;24.83;;
56285;SDS011;42191;47.562;9.686;2023-08-12T14:02:35;27.10;;;25.33;;
56285;SDS011;42191;47.562;9.686;2023-08-12T14:05:04;27.02;;;25.13;;
56285;SDS011;42191;47.562;9.686;2023-08-12T14:07:30;26.15;;;24.55;;
56285;SDS011;42191;47.562;9.686;2023-08-12T14:09:57;25.77;;;24.10;;
56285;SDS011;42191;47.562;9.686;2023-08-12T14:12:24;25.35;;;23.65;;
56285;SDS011;42191;47.562;9.686;2023-08-12T14:14:50;23.85;;;22.33;;
56285;SDS011;42191;47.562;9.686;2023-08-12T14:17:17;24.10;;;22.60;;
56285;SDS011;42191;47.562;9.686;2023-08-12T14:19:49;23.55;;;22.05;;
56285;SDS011;42191;47.562;9.686;2023-08-12T14:22:16;23.20;;;21.70;;
56285;SDS011;42191;47.562;9.686;2023-08-12T14:24:43;23.02;;;21.42;;
56285;SDS011;42191;47.562;9.686;2023-08-12T14:27:10;22.75;;;21.35;;
56285;SDS011;42191;47.562;9.686;2023-08-12T14:29:36;22.05;;;20.70;;
56285;SDS011;42191;47.562;9.686;2023-08-12T14:32:02;22.88;;;21.30;;
56285;SDS011;42191;47.562;9.686;2023-08-12T14:34:29;21.70;;;20.40;;
56285;SDS011;42191;47.562;9.686;2023-08-12T14:36:55;21.98;;;20.63;;